Skip to content

GuitarMania

(*.139.156.214) 조회 수 23203 댓글 5
이중주 곡입니다. 여름 정기공연에 듀오로 쳤던 곡인데

후반부 멜로디가 참 맘에 드는 곡이더라구요..

연습기간이 너무 짧아서 간신히 호흡만 맞추고 올라갔었죠..ㅠ

기타 음량차이가 좀 커서;; 마이크를 좀 멀리했는데도 제 소리가 더 크게 녹음이 되어버렸네요..

전반부 반주 부분과 후반부 멜로디 부분이 제가 연주한 세컨드입니다..
Comment '5'
  • buyho 2007.08.22 00:24 (*.175.45.106)
    음~~ 연주 좋다ㅋㅋ 그런데 왜 리플은 없을까ㅠㅠ
  • pakhjkr1 2007.08.22 19:18 (*.121.106.6)
    좋네요~
  • 콩쥐 2007.08.23 08:05 (*.80.23.237)
    모닝 듀...아침에 먹는 두유 인가 햇더니
    dew가 "이슬"이라고 사전에 나오네요...아침이슬.
    곡이 정말 아침이슬같네요....
  • 하늘비 2008.10.14 01:54 (*.100.204.15)
    독주곡은 없는건가여?/
  • panical 2009.01.10 10:10 (*.34.23.130)
    이곡 쳐볼까 해서 참고할 곡 찾고 있었는데
    이정도 연주면 충분하겠네요~
    연주 좋습니다^^
?

List of Articles
번호 제목 글쓴이 날짜 조회 수
1836 Love Affair 6 2007.06.02 19046
1835 zapateado///rodrigo 13 김은미 2007.06.03 23976
1834 최후의 트레몰로 (리버브효과없는겁니다..;;) 4 file JoDaC 2007.06.09 19146
1833 최후의 트레몰로 입니다 ^^ 32 file JoDaC 2007.06.06 23346
1832 전설 11 file 최병욱 2007.06.06 23256
1831 I believe 13 file orpheus15 2007.06.08 19183
1830 Romance.3번. 10 file 우체국가는길 2007.06.08 23810
1829 Kiss the Rain 이루마 곡 (기타 연주) 44 file 아이모레스 2007.06.12 26620
1828 오 솔레미오 4 file 밀롱가. 2007.06.14 21103
1827 Recuerdos de la Alhambra -F. Tarrega 12 file Jason 2007.06.15 23507
1826 알함브라 다시녹음했습니다~ 14 file 최병욱 2007.06.16 21586
1825 [re] 소르 연습곡 6번-리버브를 넣어보았습니다. 1 file niceplace 2007.06.20 21668
1824 소르 연습곡 6번 8 file niceplace 2007.06.17 21727
1823 Romance.3번. 다시 올려요 6 file 우체국가는길 2007.06.17 25644
1822 뱃노래 - 코스트 12 file fernando 2007.06.19 22307
1821 유키구라모토의 Meditation 18 file 최병욱 2007.06.19 23599
1820 fredric hand의 연습곡 1번 4 file 루하기 2007.06.21 15667
1819 리브라소나티네 3.Fuoco-롤랑디용 27 file MSGr 2007.06.21 28253
1818 바흐 샤콘느 10 file 좁은길로 2007.06.26 23056
1817 쉘부르의 우산 3 file nice guy 2007.06.27 22415
1816 Koyunbaba - C. Domeniconi 25 file 진느 2007.06.27 19723
1815 F. Tarrega,Capricho Arabe 33 file Jason 2007.06.28 22579
1814 Agua e Vinho - Egberto Gismonti 18 file limnz 2007.06.29 21902
1813 BWV1006a 프렐류드 3 file 좁은길로 2007.06.29 21638
1812 이노래어떤가요? Pulo do Gato(P.Bellinati) 15 file MSGr 2007.07.01 26352
1811 L'HYMNE A L'AMOUR / E.PIAF 24 file April 2007.07.04 20784
1810 Kleine Romanze- L. Walker 10 file Jason 2007.07.05 20449
1809 Triste Santuario by Vincent Gomez-슬픈 예배당 17 file Jason 2007.07.05 24306
1808 대성당1악장 8 file 좁은길로 2007.07.05 19986
1807 이루마의 When the love falls 7 file 최병욱 2007.07.07 43348
1806 종소리 12 file 좁은길로 2007.07.07 23303
1805 소르의 마적입니다... 19 file 화가 2007.07.08 27640
1804 brahms-theme and variations 20 file 기타레타 2007.07.09 29580
1803 [영상] 엘레지 Elegie (메르츠 Mertz) 3 2007.07.09 22509
1802 이병우 - 달려 18 file 김상욱 2007.07.09 21858
1801 대성당2악장 4 file 좁은길로 2007.07.09 31236
1800 도적의 노래-ibach 연주 16 file 바하의꿈 2007.07.10 22775
1799 하프시 팟사 완주--! 4 file 좁은길로 2007.07.10 21060
1798 핑거스타일- Sun dance (Kotaro Oshio) 7 file 최병욱 2007.07.11 24934
1797 Giuliani-- Rossiniana No.1 (글로빌 아트홀 실황연주) 15 file LDH 2007.07.11 18527
1796 엔커리지먼트-소르 39 file 기타레타 2007.07.11 22662
1795 이 곡 제목이 뭔가요? 3 file -_ - 2007.07.12 18933
1794 헨델의 아리아 23 file 아이모레스 2007.07.12 22559
1793 G선상의 아리아 - J.S.BACH 43 file 기타레타 2007.07.13 23247
1792 이루마의 Kiss the Rain 6 file 최병욱 2007.07.13 22958
1791 Pierre Bensusan - 아도니스의 정원 12 file 찬찬 2007.07.14 24140
1790 Bach - BWV1007 Prelude & Allemande 16 file 김상욱 2007.07.14 21981
1789 Wonderful tonight 43 file - 情 - 2007.07.14 25062
1788 Variation on Theme of Mozart - F.Sor 32 file Jason 2007.07.15 22993
1787 월량대표아적심(月亮代表我的心) 29 이진성 2007.07.19 25207
1786 Fantasia Arabe by Sabicas 22 file Jason 2007.07.22 18858
1785 샤콘느 뒤에뒤부분 7 file 좁은길로 2007.07.23 19585
1784 유키 구라모토의 Lake Louise(새로운 편곡) 17 file 최병욱 2007.07.23 22783
1783 Aria no.1 - F. Kleynjans 11 file bradpitt 2007.07.24 22687
1782 Septiembre (Maximo Diego Pujol) 21 file 라일 2007.07.26 21380
1781 (이중주) Green Sleeves 20 file niceplace 2007.07.27 24178
1780 BWV1006a Prelude 7 file 좁은길로 2007.07.27 25032
1779 A. Piazzolla Quattro Stagioni (부에노스아이레스의 사계) 1. Primavera portend (봄) 8 file sgq 2007.07.27 22594
1778 A. Piazzolla Oblivion(망각) 3 file sgq 2007.07.27 22390
1777 A. Piazzolla Liebertango 1 file sgq 2007.07.27 23312
1776 P. Bellinati Baiao de Gude 서울기타콰르텟 4 file sgq 2007.07.27 23222
1775 사람이 꽃보다 아름다워~~~ 4 야매 2007.07.28 23292
1774 Fur Elise by L. Van Beethoven 62 file Jason 2007.07.28 26647
1773 부탁 김효석 2007.07.29 18601
1772 클레이앙스-로망스1번(이중주) 6 file 기타레타 2007.07.30 19125
1771 Lamento No.2 / F. Kleynjans 12 file 이진성 2007.08.01 20528
1770 The old rugged cross by G. Bennard 10 file Jason 2007.08.02 21962
1769 로망스 no.1(이중주)-끌레앙 16 file 체르니 2007.08.04 31749
1768 Sleeprs, Awake! 눈뜨라부르는소리있어 7 file 좁은길로 2007.08.05 20000
1767 Estudio No.12 / F. Sor 13 file 이진성 2007.08.06 22464
1766 Partners in Praise / 안신영님 편곡 10 file orpheus15 2007.08.07 19515
1765 알베니즈-야자나무 아래에서 13 file 기타레타 2007.08.08 28566
1764 로드리고 // 고풍스런 티엔토 30 file 진느 2007.08.08 25155
1763 Sor Etude#6 10 file 밀롱가. 2007.08.10 20328
1762 Classical Gas/Mason Williams -클래식컬 개스 23 file Jason 2007.08.10 22679
1761 Adelita 2 file sky600 2007.08.12 14792
1760 maria luisa 6 file sky600 2007.08.12 23586
1759 sunflower 14 file 한사랑 2007.08.13 21057
1758 Tango En Skai 11 file 좁은길로 2007.08.13 23911
1757 바흐 // Choral from cantata147 arr.David Russell 31 file 진느 2007.08.14 20419
1756 milonga 6 file 2007.08.15 21603
1755 [동영상] Barrios - Una Limosna por el amor de Dios (최후의 트레몰로) 39 file 김상욱 2007.08.17 27497
1754 텅 빈 놀이터 II by devilous 9 file devilous 2007.08.20 20199
1753 Sleepers, Awake! from Cantata BWV140 9 file April 2007.08.20 20087
» Yuichi Watanabe - Morning Dew 5 file 2007.08.21 23203
1751 Falla--ThreeCorneredHat(KimMoonHyung & Chung Sehee) 7 file 바하의꿈 2007.08.21 24681
1750 망고레의 Contemplacion (깊은 그리움) 24 file 아이모레스 2007.08.22 21979
1749 헨델의 대장간변주?^^ Handel--Blacksmith Variations 19 file 바하의꿈 2007.08.23 23615
1748 F. Sor의 인커리지먼트 18 file 바하의꿈 2007.08.24 24693
1747 알함브라궁전의 추억 12 file 정면 2007.08.24 21405
1746 죄송한! 탕고 안 스까이 바이 로랑디앙 (조율 맞춰 재업)ㅠ 8 file buyho 2007.08.26 16685
1745 Stairway to Heaven, Classical/Unplugged version 기악 독주 7 file 2007.08.28 25161
1744 Les Feuilles Mortes (고엽) - Joseph Kosma 20 file 고정석 2007.08.29 21384
1743 Beautiful Dreamer(토스토) 7 file 까치 2007.08.30 23068
1742 줄리아니 기타협주곡 5 file buyho 2007.09.04 20465
1741 가을편지 / 안형수 편곡 15 file orpheus15 2007.09.04 22612
1740 녹음은 어떻게 하나요? 2 소르초이 2007.09.05 19619
1739 TOmmy Emmanuel-Angelina 10 file 좁은길로 2007.09.05 19032
1738 내마음의 보석상자(동영상) 7 야매 2007.09.07 24364
1737 Venus(동영상) 4 야매 2007.09.07 27056
Board Pagination ‹ Prev 1 ... 11 12 13 14 15 16 17 18 19 20 21 22 23 24 25 26 27 28 29 30 ... 39 Next ›
/ 39

나눔글꼴 설치 안내


이 PC에는 나눔글꼴이 설치되어 있지 않습니다.

이 사이트를 나눔글꼴로 보기 위해서는
나눔글꼴을 설치해야 합니다.

설치 취소

Designed by sketchbooks.co.kr / sketchbook5 board skin

Sketchbook5, 스케치북5

Sketchbook5, 스케치북5

Sketchbook5, 스케치북5

Sketchbook5, 스케치북5

Powered by Xpress Engine / Designed by hikaru100

abcXYZ, 세종대왕,1234

abcXYZ, 세종대왕,1234